createdAt,value
2023-03-08T00:00:22.463Z,25.30
2023-03-08T00:02:49.329Z,31.92
2023-03-08T00:05:22.450Z,31.88
2023-03-08T00:07:49.383Z,29.15
2023-03-08T00:10:16.554Z,25.50
2023-03-08T00:12:50.435Z,22.70
2023-03-08T00:15:24.417Z,23.00
2023-03-08T00:17:51.365Z,19.05
2023-03-08T00:20:18.449Z,18.15
2023-03-08T00:22:51.491Z,20.10
2023-03-08T00:25:18.575Z,23.20
2023-03-08T00:27:52.449Z,23.10
2023-03-08T00:30:32.443Z,27.58
2023-03-08T00:33:05.488Z,27.58
2023-03-08T00:35:32.419Z,26.75
2023-03-08T00:38:05.499Z,31.05
2023-03-08T00:41:37.913Z,30.30
2023-03-08T00:43:45.463Z,27.10
2023-03-08T00:46:21.547Z,28.38
2023-03-08T00:48:55.556Z,26.50
2023-03-08T00:51:22.549Z,30.20
2023-03-08T00:53:56.507Z,26.40
2023-03-08T00:56:29.467Z,30.35
2023-03-08T00:58:56.410Z,24.50
2023-03-08T01:01:23.335Z,24.10
2023-03-08T01:03:56.514Z,25.20
2023-03-08T01:06:23.574Z,28.13
2023-03-08T01:08:50.652Z,24.85
2023-03-08T01:11:31.502Z,22.27
2023-03-08T01:13:58.537Z,25.27
2023-03-08T01:16:34.454Z,23.38
2023-03-08T01:19:01.861Z,29.70
2023-03-08T01:21:36.515Z,26.00
2023-03-08T01:24:03.648Z,24.30
2023-03-08T01:26:37.516Z,20.52
2023-03-08T01:29:04.437Z,20.15
2023-03-08T01:31:37.515Z,23.00
2023-03-08T01:34:10.486Z,18.08
2023-03-08T01:36:43.497Z,21.52
2023-03-08T01:39:10.539Z,22.63
2023-03-08T01:41:43.598Z,17.88
2023-03-08T01:44:18.190Z,18.85
2023-03-08T01:46:51.494Z,20.08
2023-03-08T01:49:38.725Z,17.48
2023-03-08T01:52:20.493Z,23.80
2023-03-08T01:54:49.331Z,24.90
2023-03-08T01:57:46.567Z,22.10
2023-03-08T02:00:19.691Z,18.33
2023-03-08T02:03:14.492Z,21.17
2023-03-08T02:05:50.510Z,19.35
2023-03-08T02:08:24.509Z,18.35
2023-03-08T02:10:51.493Z,19.45
2023-03-08T02:13:26.465Z,21.10
2023-03-08T02:15:53.759Z,17.88
2023-03-08T02:18:27.559Z,18.08
2023-03-08T02:20:54.525Z,20.00
2023-03-08T02:23:30.540Z,18.92
2023-03-08T02:26:09.502Z,19.13
2023-03-08T02:28:36.429Z,19.67
2023-03-08T02:31:09.571Z,20.30
2023-03-08T02:33:43.500Z,26.48
2023-03-08T02:36:10.657Z,25.42
2023-03-08T02:38:37.723Z,25.08
2023-03-08T02:41:11.503Z,22.80
2023-03-08T02:43:38.380Z,21.30
2023-03-08T02:46:20.525Z,19.67
2023-03-08T02:48:47.568Z,19.70
2023-03-08T02:51:20.560Z,21.42
2023-03-08T02:53:47.541Z,19.17
2023-03-08T02:56:14.544Z,19.15
2023-03-08T02:58:47.486Z,24.25
2023-03-08T03:01:21.808Z,19.80
2023-03-08T03:03:55.577Z,17.05
2023-03-08T03:06:22.612Z,20.35
2023-03-08T03:08:49.565Z,15.88
2023-03-08T03:11:25.516Z,21.73
2023-03-08T03:14:06.507Z,21.88
2023-03-08T03:16:33.476Z,18.50
2023-03-08T03:19:06.550Z,15.68
2023-03-08T03:21:39.504Z,16.52
2023-03-08T03:24:13.542Z,17.45
2023-03-08T03:26:40.525Z,16.58
2023-03-08T03:29:07.925Z,19.35
2023-03-08T03:31:41.569Z,20.55
2023-03-08T03:34:08.492Z,17.38
2023-03-08T03:36:41.548Z,18.40
2023-03-08T03:39:08.513Z,17.75
2023-03-08T03:41:41.555Z,20.10
2023-03-08T03:44:08.537Z,19.15
2023-03-08T03:46:41.549Z,15.77
2023-03-08T03:49:08.629Z,20.63
2023-03-08T03:51:42.569Z,18.45
2023-03-08T03:54:09.516Z,19.77
2023-03-08T03:56:36.558Z,15.80
2023-03-08T03:59:09.573Z,21.50
2023-03-08T04:01:36.505Z,17.15
2023-03-08T04:04:09.529Z,19.02
2023-03-08T04:06:36.519Z,18.77
2023-03-08T04:09:17.558Z,21.83
2023-03-08T04:11:44.470Z,19.08
2023-03-08T04:14:17.634Z,22.45
2023-03-08T04:16:44.593Z,18.48
2023-03-08T04:19:18.604Z,20.00
2023-03-08T04:21:52.583Z,18.30
2023-03-08T04:24:25.530Z,16.92
2023-03-08T04:26:52.478Z,18.35
2023-03-08T04:29:25.600Z,17.13
2023-03-08T04:31:52.547Z,20.77
2023-03-08T04:34:25.605Z,18.95
2023-03-08T04:36:52.560Z,17.33
2023-03-08T04:39:25.553Z,17.67
2023-03-08T04:41:58.668Z,19.80
2023-03-08T04:44:25.590Z,16.38
2023-03-08T04:46:53.134Z,20.45
2023-03-08T04:49:26.555Z,18.35
2023-03-08T04:51:53.569Z,18.52
2023-03-08T04:54:26.580Z,16.40
2023-03-08T04:56:53.490Z,20.23
2023-03-08T04:59:20.420Z,18.38
2023-03-08T05:01:53.645Z,20.65
2023-03-08T05:04:27.561Z,21.10
2023-03-08T05:06:54.478Z,16.17
2023-03-08T05:09:27.582Z,20.70
2023-03-08T05:11:54.535Z,23.35
2023-03-08T05:14:27.550Z,20.92
2023-03-08T05:17:04.546Z,21.02
2023-03-08T05:19:31.553Z,22.88
2023-03-08T05:22:04.640Z,22.15
2023-03-08T05:24:38.588Z,21.08
2023-03-08T05:27:05.908Z,22.70
2023-03-08T05:29:39.620Z,17.52
2023-03-08T05:32:06.998Z,18.65
2023-03-08T05:34:40.606Z,22.42
2023-03-08T05:37:07.511Z,23.83
2023-03-08T05:39:40.578Z,19.55
2023-03-08T05:42:07.616Z,19.30
2023-03-08T05:44:40.546Z,20.92
2023-03-08T05:47:13.600Z,22.58
2023-03-08T05:49:40.526Z,20.52
2023-03-08T05:52:13.577Z,22.15
2023-03-08T05:54:46.596Z,17.17
2023-03-08T05:57:13.540Z,18.55
2023-03-08T05:59:46.638Z,20.90
2023-03-08T06:02:13.552Z,17.48
2023-03-08T06:04:47.639Z,19.70
2023-03-08T06:07:14.618Z,16.35
2023-03-08T06:09:47.610Z,17.95
2023-03-08T06:12:20.576Z,17.75
2023-03-08T06:14:47.479Z,23.08
2023-03-08T06:17:20.556Z,17.23
2023-03-08T06:19:47.536Z,18.88
2023-03-08T06:22:22.621Z,17.42
2023-03-08T06:24:49.533Z,18.83
2023-03-08T06:27:23.624Z,19.00
2023-03-08T06:29:50.610Z,20.73
2023-03-08T06:32:29.705Z,21.75
2023-03-08T06:34:56.855Z,17.75
2023-03-08T06:37:33.645Z,22.63
2023-03-08T06:40:00.598Z,20.02
2023-03-08T06:42:41.484Z,19.15
2023-03-08T06:45:16.605Z,20.92
2023-03-08T06:47:43.575Z,20.60
2023-03-08T06:50:17.622Z,19.42
2023-03-08T06:52:44.647Z,20.77
2023-03-08T06:55:18.717Z,21.58
2023-03-08T06:57:45.615Z,18.05
2023-03-08T07:00:19.603Z,22.92
2023-03-08T07:02:52.621Z,22.00
2023-03-08T07:05:19.593Z,17.30
2023-03-08T07:07:46.572Z,21.05
2023-03-08T07:10:20.695Z,18.15
2023-03-08T07:12:54.655Z,20.63
2023-03-08T07:15:29.672Z,23.45
2023-03-08T07:17:57.616Z,21.75
2023-03-08T07:20:32.622Z,21.42
2023-03-08T07:22:59.683Z,23.10
2023-03-08T07:25:33.609Z,21.77
2023-03-08T07:28:00.580Z,25.33
2023-03-08T07:30:27.593Z,17.67
2023-03-08T07:33:01.644Z,30.20
2023-03-08T07:35:28.704Z,19.35
2023-03-08T07:38:02.626Z,24.60
2023-03-08T07:40:29.588Z,21.55
2023-03-08T07:43:02.680Z,20.65
2023-03-08T07:45:29.721Z,26.15
2023-03-08T07:47:56.683Z,23.30
2023-03-08T07:50:29.714Z,25.45
2023-03-08T07:52:56.700Z,25.38
2023-03-08T07:55:29.660Z,23.58
2023-03-08T07:57:56.675Z,20.40
2023-03-08T08:00:30.635Z,19.05
2023-03-08T08:02:57.609Z,18.77
2023-03-08T08:05:30.692Z,15.40
2023-03-08T08:07:57.664Z,20.05
2023-03-08T08:10:24.577Z,18.92
2023-03-08T08:12:57.692Z,21.40
2023-03-08T08:15:24.733Z,17.23
2023-03-08T08:17:59.611Z,17.30
2023-03-08T08:20:26.996Z,22.52
2023-03-08T08:23:00.685Z,21.35
2023-03-08T08:25:33.630Z,20.70
2023-03-08T08:28:06.758Z,19.42
2023-03-08T08:30:40.688Z,22.20
2023-03-08T08:33:07.585Z,24.98
2023-03-08T08:35:43.355Z,24.30
2023-03-08T08:38:10.546Z,27.27
2023-03-08T08:40:37.570Z,27.17
2023-03-08T08:43:17.654Z,20.98
2023-03-08T08:45:49.723Z,21.30
2023-03-08T08:48:22.670Z,21.45
2023-03-08T08:50:49.609Z,22.40
2023-03-08T08:53:22.765Z,19.98
2023-03-08T08:55:49.684Z,21.35
2023-03-08T08:58:22.668Z,23.88
2023-03-08T09:00:49.699Z,22.92
2023-03-08T09:03:22.721Z,25.20
2023-03-08T09:05:49.578Z,21.25
2023-03-08T09:08:22.673Z,21.75
2023-03-08T09:10:49.520Z,21.60
2023-03-08T09:13:22.711Z,25.27
2023-03-08T09:15:49.659Z,22.83
2023-03-08T09:18:22.684Z,25.75
2023-03-08T09:20:49.656Z,24.33
2023-03-08T09:23:22.711Z,22.02
2023-03-08T09:25:57.522Z,26.05
2023-03-08T09:28:30.692Z,28.10
2023-03-08T09:30:57.798Z,25.33
2023-03-08T09:33:31.724Z,29.02
2023-03-08T09:35:59.083Z,28.77
2023-03-08T09:38:32.712Z,26.88
2023-03-08T09:41:26.681Z,27.13
2023-03-08T09:44:05.520Z,24.83
2023-03-08T09:46:46.686Z,27.05
2023-03-08T09:49:26.118Z,22.55
2023-03-08T09:52:11.674Z,26.55
2023-03-08T09:54:39.131Z,28.73
2023-03-08T09:57:17.756Z,28.15
2023-03-08T09:59:54.728Z,34.75
2023-03-08T10:02:31.705Z,33.95
2023-03-08T10:05:22.676Z,28.35
2023-03-08T10:08:04.733Z,33.88
2023-03-08T10:11:02.706Z,33.17
2023-03-08T10:13:36.469Z,27.98
2023-03-08T10:16:23.735Z,30.05
2023-03-08T10:19:13.101Z,21.08
2023-03-08T10:21:47.741Z,19.17
2023-03-08T10:24:30.973Z,21.35
2023-03-08T10:27:28.704Z,18.30
2023-03-08T10:29:57.868Z,18.60
2023-03-08T10:32:31.772Z,19.48
2023-03-08T10:35:03.046Z,19.00
2023-03-08T10:37:39.754Z,20.80
2023-03-08T10:40:10.213Z,20.75
2023-03-08T10:42:43.723Z,19.38
2023-03-08T10:45:26.708Z,15.60
2023-03-08T10:47:58.050Z,13.38
2023-03-08T10:50:40.714Z,10.73
2023-03-08T10:53:17.205Z,14.52
2023-03-08T10:55:58.757Z,13.73
2023-03-08T10:58:40.769Z,14.75
2023-03-08T11:01:38.441Z,14.48
2023-03-08T11:04:22.760Z,18.60
2023-03-08T11:06:49.849Z,17.30
2023-03-08T11:09:34.699Z,16.88
2023-03-08T11:12:01.608Z,14.00
2023-03-08T11:14:35.766Z,17.00
2023-03-08T11:17:23.566Z,11.80
2023-03-08T11:20:14.743Z,14.13
2023-03-08T11:22:53.750Z,12.05
2023-03-08T11:25:58.777Z,16.85
2023-03-08T11:28:45.033Z,10.93
2023-03-08T11:32:06.765Z,18.55
2023-03-08T11:35:06.925Z,14.32
2023-03-08T11:37:56.798Z,11.20
2023-03-08T11:40:47.720Z,15.73
2023-03-08T11:43:42.768Z,16.20
2023-03-08T11:46:28.465Z,17.35
2023-03-08T11:49:32.799Z,18.55
2023-03-08T11:52:24.809Z,16.08
2023-03-08T11:55:54.586Z,16.75
2023-03-08T11:58:57.773Z,15.55
2023-03-08T12:01:51.272Z,12.25
2023-03-08T12:04:31.844Z,13.13
2023-03-08T12:07:01.168Z,13.52
2023-03-08T12:09:39.842Z,10.85
2023-03-08T12:12:30.650Z,10.95
2023-03-08T12:15:12.850Z,11.82
2023-03-08T12:17:44.395Z,10.60
2023-03-08T12:20:22.798Z,14.25
2023-03-08T12:23:34.868Z,12.15
2023-03-08T12:26:25.934Z,11.52
2023-03-08T12:29:03.852Z,12.43
2023-03-08T12:31:42.852Z,12.68
2023-03-08T12:34:38.216Z,11.60
2023-03-08T12:37:11.814Z,11.60
2023-03-08T12:39:38.712Z,11.10
2023-03-08T12:42:18.780Z,11.80
2023-03-08T12:44:45.691Z,13.30
2023-03-08T12:47:18.796Z,14.77
2023-03-08T12:49:50.057Z,12.63
2023-03-08T12:52:26.848Z,11.60
2023-03-08T12:55:06.778Z,12.90
2023-03-08T12:57:44.777Z,12.00
2023-03-08T13:00:21.142Z,11.20
2023-03-08T13:03:30.835Z,9.77
2023-03-08T13:06:03.819Z,10.07
2023-03-08T13:08:40.719Z,9.10
2023-03-08T13:11:18.826Z,9.95
2023-03-08T13:14:05.019Z,12.02
2023-03-08T13:16:39.125Z,12.15
2023-03-08T13:19:27.843Z,11.75
2023-03-08T13:22:09.095Z,11.80
2023-03-08T13:24:57.008Z,13.85
2023-03-08T13:27:36.907Z,14.30
2023-03-08T13:30:31.618Z,12.15
2023-03-08T13:33:05.845Z,14.80
2023-03-08T13:35:38.899Z,12.60
2023-03-08T13:38:12.846Z,11.10
2023-03-08T13:40:45.851Z,11.13
2023-03-08T13:43:13.810Z,16.33
2023-03-08T13:45:46.877Z,17.17
2023-03-08T13:48:13.774Z,15.05
2023-03-08T13:50:52.832Z,11.73
2023-03-08T13:53:23.521Z,11.13
2023-03-08T13:55:59.852Z,12.68
2023-03-08T13:58:38.839Z,14.13
2023-03-08T14:01:17.936Z,12.30
2023-03-08T14:03:45.942Z,17.45
2023-03-08T14:06:36.926Z,14.65
2023-03-08T14:09:04.041Z,12.98
2023-03-08T14:11:45.853Z,14.18
2023-03-08T14:14:30.063Z,13.55
2023-03-08T14:17:07.440Z,11.52
2023-03-08T14:19:45.922Z,15.30
2023-03-08T14:22:14.522Z,11.82
2023-03-08T14:24:48.898Z,12.13
2023-03-08T14:27:21.922Z,14.63
2023-03-08T14:29:48.935Z,13.98
2023-03-08T14:32:15.926Z,11.13
2023-03-08T14:34:49.900Z,16.25
2023-03-08T14:37:30.192Z,10.43
2023-03-08T14:40:19.909Z,15.48
2023-03-08T14:42:55.926Z,10.77
2023-03-08T14:45:42.639Z,12.43
2023-03-08T14:48:34.980Z,12.57
2023-03-08T14:51:07.295Z,12.60
2023-03-08T14:53:46.880Z,12.00
2023-03-08T14:56:15.693Z,13.35
2023-03-08T14:58:56.946Z,12.90
2023-03-08T15:01:32.706Z,13.23
2023-03-08T15:04:06.882Z,14.15
2023-03-08T15:06:35.362Z,10.95
2023-03-08T15:09:03.185Z,12.90
2023-03-08T15:11:37.903Z,11.68
2023-03-08T15:14:04.831Z,12.95
2023-03-08T15:16:37.959Z,14.77
2023-03-08T15:19:05.169Z,14.18
2023-03-08T15:21:32.150Z,12.43
2023-03-08T15:24:05.879Z,12.40
2023-03-08T15:26:38.901Z,16.60
2023-03-08T15:29:05.844Z,15.48
2023-03-08T15:31:38.941Z,16.08
2023-03-08T15:34:05.820Z,13.95
2023-03-08T15:36:38.881Z,14.25
2023-03-08T15:39:05.816Z,15.98
2023-03-08T15:41:32.692Z,15.27
2023-03-08T15:44:05.890Z,14.25
2023-03-08T15:46:38.953Z,15.77
2023-03-08T15:49:12.881Z,18.77
2023-03-08T15:51:52.911Z,15.75
2023-03-08T15:54:25.923Z,13.82
2023-03-08T15:56:58.900Z,12.27
2023-03-08T15:59:25.810Z,10.93
2023-03-08T16:01:58.998Z,14.10
2023-03-08T16:04:32.927Z,14.02
2023-03-08T16:06:59.822Z,14.57
2023-03-08T16:09:32.961Z,19.42
2023-03-08T16:11:59.853Z,13.68
2023-03-08T16:14:26.754Z,15.40
2023-03-08T16:17:00.048Z,13.25
2023-03-08T16:19:30.465Z,24.88
2023-03-08T16:22:03.945Z,19.67
2023-03-08T16:24:36.972Z,15.60
2023-03-08T16:27:04.106Z,16.50
2023-03-08T16:29:32.273Z,14.55
2023-03-08T16:32:06.154Z,13.25
2023-03-08T16:34:33.102Z,10.45
2023-03-08T16:36:59.991Z,14.77
2023-03-08T16:39:32.994Z,19.65
2023-03-08T16:41:59.903Z,17.85
2023-03-08T16:44:35.023Z,15.05
2023-03-08T16:47:07.949Z,17.98
2023-03-08T16:49:35.694Z,17.70
2023-03-08T16:52:09.008Z,16.60
2023-03-08T16:54:36.049Z,14.88
2023-03-08T16:57:18.548Z,16.08
2023-03-08T16:59:45.813Z,16.15
2023-03-08T17:02:25.040Z,14.15
2023-03-08T17:04:52.028Z,15.40
2023-03-08T17:07:24.999Z,21.33
2023-03-08T17:09:58.015Z,17.23
2023-03-08T17:12:25.154Z,18.27
2023-03-08T17:14:59.048Z,21.20
2023-03-08T17:17:33.029Z,36.60
2023-03-08T17:20:00.013Z,40.53
2023-03-08T17:22:33.000Z,41.05
2023-03-08T17:25:01.375Z,39.80
2023-03-08T17:27:28.405Z,44.97
2023-03-08T17:30:02.027Z,47.92
2023-03-08T17:32:35.005Z,61.17
2023-03-08T17:35:09.032Z,58.33
2023-03-08T17:37:35.957Z,55.88
2023-03-08T17:40:02.839Z,62.40
2023-03-08T17:42:36.010Z,53.35
2023-03-08T17:45:04.452Z,53.95
2023-03-08T17:47:31.371Z,48.85
2023-03-08T17:50:04.970Z,62.67
2023-03-08T17:52:31.966Z,41.10
2023-03-08T17:55:05.054Z,37.75
2023-03-08T17:57:31.957Z,38.70
2023-03-08T18:00:04.982Z,30.70
2023-03-08T18:02:39.129Z,34.53
2023-03-08T18:05:13.038Z,31.02
2023-03-08T18:07:41.772Z,30.48
2023-03-08T18:10:17.074Z,37.05
2023-03-08T18:12:44.018Z,35.40
2023-03-08T18:15:11.497Z,32.88
2023-03-08T18:17:45.028Z,31.40
2023-03-08T18:20:12.004Z,36.30
2023-03-08T18:22:44.998Z,35.10
2023-03-08T18:25:11.908Z,36.83
2023-03-08T18:27:38.802Z,41.70
2023-03-08T18:30:13.034Z,47.58
2023-03-08T18:32:40.268Z,42.63
2023-03-08T18:35:21.072Z,106.93
2023-03-08T18:37:54.046Z,79.57
2023-03-08T18:40:20.946Z,39.38
2023-03-08T18:42:54.062Z,32.40
2023-03-08T18:45:20.982Z,29.40
2023-03-08T18:47:58.188Z,29.73
2023-03-08T18:50:31.675Z,28.73
2023-03-08T18:53:05.039Z,21.60
2023-03-08T18:55:31.940Z,17.00
2023-03-08T18:58:05.003Z,14.15
2023-03-08T19:00:38.076Z,12.85
2023-03-08T19:03:11.040Z,15.02
2023-03-08T19:05:44.024Z,13.73
2023-03-08T19:08:17.069Z,14.93
2023-03-08T19:10:43.950Z,15.32
2023-03-08T19:13:17.093Z,16.58
2023-03-08T19:15:44.015Z,15.55
2023-03-08T19:18:10.932Z,16.23
2023-03-08T19:20:46.042Z,20.70
2023-03-08T19:23:12.926Z,23.58
2023-03-08T19:25:46.038Z,21.65
2023-03-08T19:28:12.914Z,25.20
2023-03-08T19:30:39.810Z,30.77
2023-03-08T19:33:24.663Z,37.35
2023-03-08T19:35:56.911Z,47.72
2023-03-08T19:38:30.055Z,56.00
2023-03-08T19:40:56.915Z,37.72
2023-03-08T19:43:30.021Z,24.73
2023-03-08T19:46:03.072Z,20.38
2023-03-08T19:48:36.470Z,19.73
2023-03-08T19:51:10.041Z,18.40
2023-03-08T19:53:36.949Z,11.98
2023-03-08T19:56:10.026Z,14.65
2023-03-08T19:58:36.935Z,16.52
2023-03-08T20:01:05.499Z,16.15
2023-03-08T20:03:39.072Z,16.00
2023-03-08T20:06:13.108Z,14.95
2023-03-08T20:08:39.996Z,14.25
2023-03-08T20:11:14.091Z,14.93
2023-03-08T20:13:41.042Z,14.52
2023-03-08T20:16:15.193Z,15.18
2023-03-08T20:18:42.327Z,14.98
2023-03-08T20:21:16.072Z,20.02
2023-03-08T20:23:43.010Z,18.38
2023-03-08T20:26:09.943Z,20.90
2023-03-08T20:28:43.108Z,26.67
2023-03-08T20:31:12.121Z,22.10
2023-03-08T20:33:46.138Z,19.08
2023-03-08T20:36:13.077Z,20.02
2023-03-08T20:38:46.106Z,22.38
2023-03-08T20:41:25.116Z,22.50
2023-03-08T20:43:52.319Z,20.77
2023-03-08T20:46:27.185Z,15.20
2023-03-08T20:49:01.091Z,16.33
2023-03-08T20:51:28.139Z,17.23
2023-03-08T20:54:02.124Z,19.33
2023-03-08T20:56:29.076Z,19.33
2023-03-08T20:59:04.142Z,17.17
2023-03-08T21:01:32.600Z,20.63
2023-03-08T21:04:06.167Z,18.95
2023-03-08T21:06:33.146Z,21.60
2023-03-08T21:09:00.398Z,22.50
2023-03-08T21:11:34.129Z,20.20
2023-03-08T21:14:01.092Z,23.45
2023-03-08T21:16:28.648Z,24.85
2023-03-08T21:19:05.126Z,26.05
2023-03-08T21:21:35.175Z,22.45
2023-03-08T21:24:12.154Z,22.08
2023-03-08T21:26:39.108Z,23.70
2023-03-08T21:29:15.112Z,22.50
2023-03-08T21:31:44.885Z,28.02
2023-03-08T21:34:19.123Z,28.15
2023-03-08T21:36:46.016Z,23.85
2023-03-08T21:39:20.176Z,24.20
2023-03-08T21:41:47.708Z,23.63
2023-03-08T21:44:25.128Z,24.20
2023-03-08T21:46:59.161Z,24.45
2023-03-08T21:49:28.493Z,23.83
2023-03-08T21:52:03.191Z,24.75
2023-03-08T21:54:30.867Z,22.35
2023-03-08T21:57:04.178Z,22.80
2023-03-08T21:59:31.186Z,18.77
2023-03-08T22:02:05.215Z,22.27
2023-03-08T22:04:32.143Z,22.48
2023-03-08T22:07:05.164Z,20.88
2023-03-08T22:09:32.112Z,20.80
2023-03-08T22:11:58.998Z,18.17
2023-03-08T22:14:33.405Z,22.50
2023-03-08T22:17:07.164Z,22.15
2023-03-08T22:19:40.109Z,23.30
2023-03-08T22:22:07.022Z,20.20
2023-03-08T22:24:33.967Z,21.23
2023-03-08T22:27:07.142Z,22.20
2023-03-08T22:29:34.028Z,22.52
2023-03-08T22:32:07.200Z,21.58
2023-03-08T22:34:34.248Z,21.35
2023-03-08T22:37:08.146Z,21.05
2023-03-08T22:39:41.104Z,25.27
2023-03-08T22:42:08.242Z,23.58
2023-03-08T22:44:42.164Z,29.85
2023-03-08T22:47:09.029Z,24.63
2023-03-08T22:49:42.152Z,25.10
2023-03-08T22:52:09.058Z,24.58
2023-03-08T22:54:43.148Z,23.02
2023-03-08T22:57:16.188Z,22.90
2023-03-08T22:59:43.102Z,19.23
2023-03-08T23:02:16.152Z,20.52
2023-03-08T23:04:49.196Z,23.98
2023-03-08T23:07:23.152Z,23.52
2023-03-08T23:09:56.280Z,22.52
2023-03-08T23:12:23.166Z,27.10
2023-03-08T23:14:56.162Z,24.30
2023-03-08T23:17:29.183Z,27.10
2023-03-08T23:19:56.060Z,27.50
2023-03-08T23:22:29.155Z,34.50
2023-03-08T23:24:56.036Z,32.47
2023-03-08T23:27:29.214Z,26.92
2023-03-08T23:29:56.109Z,24.98
2023-03-08T23:32:29.223Z,24.00
2023-03-08T23:34:56.104Z,25.90
2023-03-08T23:37:29.166Z,25.13
2023-03-08T23:39:56.077Z,20.25
2023-03-08T23:42:29.230Z,24.83
2023-03-08T23:44:56.079Z,22.38
2023-03-08T23:47:29.188Z,24.60
2023-03-08T23:50:02.862Z,20.80
2023-03-08T23:52:36.193Z,22.80
2023-03-08T23:55:03.754Z,25.45
2023-03-08T23:57:30.703Z,21.15
